Kezdőlap
METAR-TAF:

METAR-TAF

Repülőterek :

Berlin, Németország

földrajzi szélesség: 52-34N, földrajzi hosszúság: 013-19E, magasság: 37 m

Jelenlegi meteorológiai megfigyelések

A jelentés 37 perccel ezelõtt készült, 13:50 UTC
Nyugat-délnyugati szél 10 kt, dél-délnyugati és nyugati között változik
Hőmérséklet 29°C
Páratartalom 33%
Légköri nyomás 1017 hPa
Látótávolság 10 km, vagy több
felhőtlen 1500 m magasságban, és nincs gomolyfelhõ

METAR: EDDT 191350Z 24010KT 200V260 CAVOK 29/11 Q1017 NOSIG

Idő: 16:27 (14:27 UTC)

Előrejelzés

A jelentés 3 órával és 27 perccel ezelõtt készült, 11:00 UTC
Az előrejelzés 19-én 12 óra UTC és 20-én 12 óra UTC között érvényes
Délnyugati szél 5 kt
Látótávolság 10 km, vagy több
felhőtlen 1500 m magasságban, és nincs gomolyfelhõ

TAF: EDDT 191100Z 1912/2012 23005KT CAVOK

Meteorológiai megfigyelések és előrejelzések több, mint 4000 repülőtéren (METAR és TAF jelentéseket).

A térképen piros és sárga pontok jelzik az elérhető meteorológiai állomásokat.

Mozgassa az egeret a pont fölött, hogy megjelenjen az állomás neve.

Azután kattintson az időjárási megfigyelések és előrejelzések megtekintéséhez.

A térkép megváltoztatása: kattintson a fekete keresztel jelölt zöld gombra ráközelítéshez, a vonallal jelölt zöld gombra távolításhoz, vagy a zöld nyilakra a szomszédos térképek eléréséhez.


METAR-TAF: